Maritime — WCZ5279 — position and weather

sailwx.info

Track history (hours):
 
Tides and Currents Weather Stations Pressure Air Temp Water Temp Dewpoint Dewpoint Depression Visibility Wind Speed Wind Dir Waves Ship Positions

Maritime

Owner: ERGON MARINE & INDUSTRIAL SUPPLY, VICKSBURG, MS. More information available from US FCC via Universal Licensing System.

Last reported at 2017-Feb-26 10:34 UTC. Time now 2017-Feb-26 10:35 UTC.
Position N 32°18' W 090°55'.

; draft 3 m.

Type: Towing. MMSI: 367327920.

Date/timePositionNaut miles runAvg speedWind from/ knotsBaromVisibWave heightAir tempDewpointWater temp
2017-Feb-26 10:34N 32°18' W 090°55'0 0.1
2017-Feb-26 09:33N 32°18' W 090°55'1 0.8
2017-Feb-26 08:33N 32°19' W 090°55'2 2.2
2017-Feb-26 07:34N 32°21' W 090°54'0 0.0
2017-Feb-26 06:33N 32°21' W 090°54'1 0.6
2017-Feb-26 05:33N 32°21' W 090°53'2 2.1
2017-Feb-26 04:33N 32°23' W 090°53'0 0.3
2017-Feb-26 03:33N 32°23' W 090°53'1 0.8
2017-Feb-26 02:33N 32°22' W 090°53'1 1.2
2017-Feb-26 01:33N 32°23' W 090°54'3 3.3
2017-Feb-26 00:34N 32°20' W 090°54'0 0.0
2017-Feb-25 23:33N 32°20' W 090°54'0 0.0
2017-Feb-25 22:33N 32°20' W 090°54'2 2.1
2017-Feb-25 21:33N 32°22' W 090°53'2 1.6
2017-Feb-25 20:33N 32°23' W 090°53'0 0.0
2017-Feb-25 19:33N 32°23' W 090°53'0 0.0
2017-Feb-25 18:33N 32°23' W 090°53'0 0.0
2017-Feb-25 17:33N 32°23' W 090°53'0 0.0
2017-Feb-25 16:33N 32°23' W 090°53'0 0.2
2017-Feb-25 15:33N 32°23' W 090°53'1 0.8
2017-Feb-25 14:33N 32°22' W 090°53'2 2.1
2017-Feb-25 13:33N 32°20' W 090°54'1 0.7
2017-Feb-25 12:33N 32°20' W 090°54'4 3.6
2017-Feb-25 11:33N 32°23' W 090°53'0 0.0
2017-Feb-25 10:33N 32°23' W 090°53'0 0.0
2017-Feb-25 09:33N 32°23' W 090°53'0 0.0
2017-Feb-25 08:33N 32°23' W 090°53'0 0.0
2017-Feb-25 07:33N 32°23' W 090°53'1 0.5
2017-Feb-25 06:33N 32°23' W 090°54'1 0.7
2017-Feb-25 05:33N 32°23' W 090°53'3 2.9
2017-Feb-25 04:33N 32°20' W 090°54'2 1.7
2017-Feb-25 03:33N 32°19' W 090°54'0 0.4
2017-Feb-25 02:33N 32°19' W 090°54'1 0.6
2017-Feb-25 01:33N 32°20' W 090°54'0 0.2
2017-Feb-25 00:33N 32°19' W 090°54'0 0.2
2017-Feb-24 23:33N 32°20' W 090°54'1 1.0
2017-Feb-24 22:33N 32°19' W 090°55'1 1.1
2017-Feb-24 21:33N 32°20' W 090°54'4 3.5
2017-Feb-24 20:33N 32°23' W 090°54'2 1.7
2017-Feb-24 19:33N 32°22' W 090°53'5 5.0
2017-Feb-24 18:33N 32°21' W 090°59'3 3.4
2017-Feb-24 17:33N 32°21' W 090°55'2 2.0
2017-Feb-24 16:33N 32°22' W 090°53'1 0.8
2017-Feb-24 15:33N 32°22' W 090°52'1 1.0
2017-Feb-24 14:33N 32°23' W 090°53'0 0.0
2017-Feb-24 13:33N 32°23' W 090°53'4 3.7
2017-Feb-24 12:33N 32°20' W 090°54'0 0.0
2017-Feb-24 11:33N 32°20' W 090°54'0 0.2
2017-Feb-24 10:33N 32°20' W 090°54'2 1.9
2017-Feb-24 09:33N 32°22' W 090°53'2 1.7
2017-Feb-24 08:33N 32°23' W 090°53'0 0.0
2017-Feb-24 07:33N 32°23' W 090°53'0 0.0
2017-Feb-24 06:33N 32°23' W 090°53'0 0.0
2017-Feb-24 05:33N 32°23' W 090°53'0 0.3
2017-Feb-24 04:33N 32°23' W 090°53'0 0.4
2017-Feb-24 03:33N 32°23' W 090°53'0 0.1
2017-Feb-24 02:34N 32°23' W 090°53'1 1.2
2017-Feb-24 01:33N 32°22' W 090°53'2 2.2
2017-Feb-24 00:34N 32°20' W 090°54'0 0.5
2017-Feb-23 23:33N 32°21' W 090°53'0 0.1
2017-Feb-23 22:33N 32°21' W 090°53'1 1.4
2017-Feb-23 21:33N 32°22' W 090°53'1 1.0
2017-Feb-23 20:33N 32°21' W 090°53'5 4.5
2017-Feb-23 19:33N 32°21' W 090°59'3 3.2
2017-Feb-23 18:33N 32°21' W 090°55'2 2.3
2017-Feb-23 17:33N 32°22' W 090°53'1 1.2
2017-Feb-23 16:33N 32°23' W 090°54'0 0.4
2017-Feb-23 15:33N 32°23' W 090°53'0 0.5
2017-Feb-23 14:33N 32°23' W 090°54'1 0.8
2017-Feb-23 13:33N 32°23' W 090°53'4 3.6
2017-Feb-23 12:33N 32°20' W 090°54'4 3.7
2017-Feb-23 11:34N 32°23' W 090°53'1 0.8
2017-Feb-23 10:33N 32°23' W 090°54'1 0.6
2017-Feb-23 09:34N 32°23' W 090°53'0 0.0
2017-Feb-23 08:34N 32°23' W 090°53'0 0.0
2017-Feb-23 07:33N 32°23' W 090°53'0 0.4
2017-Feb-23 06:34N 32°23' W 090°54'1 1.0
2017-Feb-23 05:34N 32°23' W 090°53'4 4.3
2017-Feb-23 04:34N 32°19' W 090°54'1 1.0
2017-Feb-23 03:34N 32°18' W 090°55'1 0.6
2017-Feb-23 02:34N 32°19' W 090°55'2 2.4
2017-Feb-23 01:34N 32°21' W 090°53'1 1.2
2017-Feb-23 00:34N 32°20' W 090°54'3 3.3
2017-Feb-22 23:34N 32°23' W 090°53'1 1.2
2017-Feb-22 22:33N 32°22' W 090°53'1 0.9
2017-Feb-22 21:34N 32°22' W 090°52'1 0.5
2017-Feb-22 20:34N 32°23' W 090°53'5 5.4
2017-Feb-22 19:33N 32°21' W 090°59'3 2.9
2017-Feb-22 18:34N 32°21' W 090°55'1 1.2
2017-Feb-22 17:34N 32°20' W 090°54'0 0.2
2017-Feb-22 16:34N 32°20' W 090°54'3 2.8
2017-Feb-22 15:34N 32°23' W 090°54'1 0.9
2017-Feb-22 14:34N 32°23' W 090°53'1 1.4
2017-Feb-22 13:34N 32°22' W 090°53'2 2.2
2017-Feb-22 12:33N 32°20' W 090°54'0 0.1
2017-Feb-22 11:33N 32°20' W 090°54'0 0.2
2017-Feb-22 10:33N 32°20' W 090°54'1 1.5
2017-Feb-22 09:33N 32°18' W 090°55'0 0.0
2017-Feb-22 08:33N 32°18' W 090°55'0 0.1
2017-Feb-22 07:33N 32°18' W 090°55'0 0.4
2017-Feb-22 06:33N 32°18' W 090°55'5 4.8
2017-Feb-22 05:33N 32°23' W 090°53'1 0.5
2017-Feb-22 04:33N 32°23' W 090°53'4 3.6
2017-Feb-22 03:33N 32°20' W 090°54'3 2.8
2017-Feb-22 02:33N 32°22' W 090°53'1 1.3
2017-Feb-22 01:33N 32°23' W 090°54'4 3.6
2017-Feb-22 00:33N 32°20' W 090°54'2 2.1
2017-Feb-21 23:33N 32°22' W 090°53'3 3.0
2017-Feb-21 22:33N 32°19' W 090°54'1 0.8
2017-Feb-21 21:33N 32°18' W 090°55'0 0.1
2017-Feb-21 20:33N 32°18' W 090°55'0 0.4
2017-Feb-21 19:33N 32°18' W 090°55'0 0.1
2017-Feb-21 18:33N 32°18' W 090°55'0 0.2
2017-Feb-21 17:33N 32°18' W 090°55'0 0.0
2017-Feb-21 16:33N 32°18' W 090°55'3 2.6
2017-Feb-21 15:33N 32°20' W 090°54'3 2.8
2017-Feb-21 14:33N 32°23' W 090°53'0 0.2
2017-Feb-21 13:33N 32°23' W 090°53'3 2.9
2017-Feb-21 12:33N 32°20' W 090°54'1 0.8
2017-Feb-21 11:33N 32°20' W 090°54'1 1.1
2017-Feb-21 10:33N 32°21' W 090°53'0 0.0
2017-Feb-21 09:33N 32°21' W 090°53'0 0.0
2017-Feb-21 08:33N 32°21' W 090°53'2 2.3
2017-Feb-21 07:33N 32°23' W 090°53'0 0.4
2017-Feb-21 06:33N 32°23' W 090°53'0 0.0
2017-Feb-21 05:33N 32°23' W 090°53'1 0.7
2017-Feb-21 04:33N 32°22' W 090°53'1 0.8
2017-Feb-21 03:33N 32°22' W 090°53'3 2.8
2017-Feb-21 02:33N 32°24' W 090°55'1 0.5
2017-Feb-21 01:33N 32°23' W 090°55'4 3.8
2017-Feb-21 00:33N 32°20' W 090°54'3 2.9
2017-Feb-20 23:33N 32°22' W 090°53'1 0.8
2017-Feb-20 22:33N 32°23' W 090°53'0 0.1
2017-Feb-20 21:33N 32°23' W 090°53'0 0.4
2017-Feb-20 20:33N 32°23' W 090°54'0 0.1
2017-Feb-20 19:33N 32°23' W 090°54'1 1.3
2017-Feb-20 18:34N 32°23' W 090°53'2 2.1
2017-Feb-20 17:34N 32°23' W 090°55'3 2.9
2017-Feb-20 16:33N 32°21' W 090°53'3 2.9
2017-Feb-20 15:33N 32°21' W 090°57'1 0.5
2017-Feb-20 14:33N 32°21' W 090°57'0 0.1
2017-Feb-20 13:33N 32°21' W 090°57'2 2.3
2017-Feb-20 12:33N 32°21' W 090°55'1 1.3
2017-Feb-20 11:33N 32°20' W 090°54'4 3.6
2017-Feb-20 10:33N 32°23' W 090°53'0 0.0
2017-Feb-20 09:33N 32°23' W 090°53'0 0.0
2017-Feb-20 08:33N 32°23' W 090°53'0 0.0
2017-Feb-20 07:33N 32°23' W 090°53'5 4.7
2017-Feb-20 06:33N 32°19' W 090°55'4 4.1
2017-Feb-20 05:33N 32°22' W 090°53'1 1.2
2017-Feb-20 04:33N 32°23' W 090°53'0 0.0
2017-Feb-20 03:33N 32°23' W 090°53'0 0.0
2017-Feb-20 02:33N 32°23' W 090°53'0 0.5
2017-Feb-20 01:33N 32°23' W 090°53'3 3.5
2017-Feb-20 00:33N 32°20' W 090°54'0 0.0
2017-Feb-19 23:34N 32°20' W 090°54'1 0.8
2017-Feb-19 22:33N 32°20' W 090°54'3 2.7
2017-Feb-19 21:34N 32°23' W 090°53'0 0.4
2017-Feb-19 20:33N 32°23' W 090°53'0 0.0
2017-Feb-19 19:34N 32°23' W 090°53'0 0.0
2017-Feb-19 18:33N 32°23' W 090°53'0 0.4
2017-Feb-19 17:33N 32°23' W 090°54'1 0.9
2017-Feb-19 16:33N 32°22' W 090°53'1 1.4
2017-Feb-19 15:33N 32°23' W 090°55'1 1.4
2017-Feb-19 14:33N 32°22' W 090°53'3 2.9
2017-Feb-19 13:33N 32°20' W 090°54'0 0.0
2017-Feb-19 12:33N 32°20' W 090°54'0 0.4
2017-Feb-19 11:33N 32°20' W 090°54'3 3.1
2017-Feb-19 10:33N 32°23' W 090°53'1 1.2
2017-Feb-19 09:33N 32°22' W 090°53'4 4.4
2017-Feb-19 08:33N 32°18' W 090°55'0 0.3
2017-Feb-19 07:33N 32°18' W 090°55'0 0.1
2017-Feb-19 06:33N 32°18' W 090°55'3 2.6
2017-Feb-19 05:33N 32°20' W 090°54'3 2.6
2017-Feb-19 04:33N 32°23' W 090°53'5 5.0
2017-Feb-19 03:33N 32°18' W 090°55'5 5.2
2017-Feb-19 02:33N 32°23' W 090°53'1 1.1
2017-Feb-19 01:33N 32°22' W 090°53'2 2.2
2017-Feb-19 00:33N 32°20' W 090°54'2 1.8
2017-Feb-18 23:34N 32°19' W 090°55'1 0.6
2017-Feb-18 22:34N 32°18' W 090°55'3 3.0
2017-Feb-18 21:33N 32°21' W 090°53'2 1.7
2017-Feb-18 20:34N 32°22' W 090°53'1 1.2
2017-Feb-18 19:34N 32°23' W 090°53'0 0.1
2017-Feb-18 18:34N 32°23' W 090°53'0 0.1
2017-Feb-18 17:33N 32°23' W 090°53'0 0.0
2017-Feb-18 16:34N 32°23' W 090°53'0 0.0
2017-Feb-18 15:34N 32°23' W 090°53'0 0.0
2017-Feb-18 14:33N 32°23' W 090°53'2 2.0
2017-Feb-18 13:34N 32°21' W 090°53'2 1.8
2017-Feb-18 12:34N 32°20' W 090°54'2 1.7
2017-Feb-18 11:33N 32°21' W 090°53'1 0.6
2017-Feb-18 10:33N 32°22' W 090°53'0 0.0
2017-Feb-18 09:33N 32°22' W 090°53'2 1.5
2017-Feb-18 08:33N 32°23' W 090°53'4 3.7
2017-Feb-18 07:33N 32°20' W 090°54'2 2.0
2017-Feb-18 06:33N 32°18' W 090°56'0 0.1
2017-Feb-18 05:33N 32°18' W 090°56'1 0.6
2017-Feb-18 04:33N 32°18' W 090°55'0 0.0
2017-Feb-18 03:33N 32°18' W 090°55'2 2.1
2017-Feb-18 02:33N 32°20' W 090°54'3 3.0
2017-Feb-18 01:33N 32°23' W 090°52'2 2.0
2017-Feb-18 00:33N 32°21' W 090°53'1 1.2
2017-Feb-17 23:33N 32°20' W 090°54'3 3.4
2017-Feb-17 22:33N 32°23' W 090°53'1 1.0
2017-Feb-17 21:33N 32°22' W 090°53'1 1.1
2017-Feb-17 20:33N 32°21' W 090°53'1 1.3
2017-Feb-17 19:33N 32°22' W 090°53'0 0.2
2017-Feb-17 18:33N 32°22' W 090°53'3 2.8
2017-Feb-17 17:33N 32°20' W 090°54'0 0.0
2017-Feb-17 16:33N 32°20' W 090°54'0 0.0
2017-Feb-17 15:33N 32°20' W 090°54'0 0.0
2017-Feb-17 14:33N 32°20' W 090°54'0 0.0
2017-Feb-17 13:33N 32°20' W 090°54'0 0.0
2017-Feb-17 12:33N 32°20' W 090°54'3 3.2
2017-Feb-17 11:33N 32°23' W 090°52'1 1.0
2017-Feb-17 10:33N 32°23' W 090°53'0 0.0
2017-Feb-17 09:33N 32°23' W 090°53'0 0.0
2017-Feb-17 08:33N 32°23' W 090°53'0 0.0
2017-Feb-17 07:33N 32°23' W 090°53'0 0.0
2017-Feb-17 06:33N 32°23' W 090°53'0 0.0
2017-Feb-17 05:33N 32°23' W 090°53'0 0.5
2017-Feb-17 04:33N 32°23' W 090°54'1 0.9
2017-Feb-17 03:33N 32°23' W 090°53'3 3.1
2017-Feb-17 02:33N 32°20' W 090°54'2 2.0
2017-Feb-17 01:33N 32°18' W 090°55'2 2.4
2017-Feb-17 00:33N 32°20' W 090°54'2 1.9
2017-Feb-16 23:33N 32°19' W 090°55'1 1.0
2017-Feb-16 22:33N 32°18' W 090°56'0 0.1
2017-Feb-16 21:33N 32°18' W 090°55'5 5.4
2017-Feb-16 20:33N 32°23' W 090°53'1 1.4
2017-Feb-16 19:33N 32°22' W 090°53'4 3.6
2017-Feb-16 18:33N 32°18' W 090°55'0 0.2
2017-Feb-16 17:33N 32°18' W 090°55'3 2.9
2017-Feb-16 16:33N 32°21' W 090°53'2 2.3
2017-Feb-16 15:33N 32°23' W 090°53'0 0.2
2017-Feb-16 14:33N 32°23' W 090°53'2 1.7
2017-Feb-16 13:33N 32°22' W 090°53'2 2.0
2017-Feb-16 12:33N 32°20' W 090°54'1 0.7
2017-Feb-16 11:33N 32°21' W 090°54'  
Track history (hours):
 
Tides and Currents Weather Stations Pressure Air Temp Water Temp Dewpoint Dewpoint Depression Visibility Wind Speed Wind Dir Waves Ship Positions

Maritime

Owner: ERGON MARINE & INDUSTRIAL SUPPLY, VICKSBURG, MS. More information available from US FCC via Universal Licensing System.

Last reported at 2017-Feb-26 10:34 UTC. Time now 2017-Feb-26 10:35 UTC.
Position N 32°18' W 090°55'.

; draft 3 m.

Type: Towing. MMSI: 367327920.

Date/timePositionNaut miles runAvg speedWind from/ knotsBaromVisibWave heightAir tempDewpointWater temp
2017-Feb-26 10:34N 32°18' W 090°55'0 0.1
2017-Feb-26 09:33N 32°18' W 090°55'1 0.8
2017-Feb-26 08:33N 32°19' W 090°55'2 2.2
2017-Feb-26 07:34N 32°21' W 090°54'0 0.0
2017-Feb-26 06:33N 32°21' W 090°54'1 0.6
2017-Feb-26 05:33N 32°21' W 090°53'2 2.1
2017-Feb-26 04:33N 32°23' W 090°53'0 0.3
2017-Feb-26 03:33N 32°23' W 090°53'1 0.8
2017-Feb-26 02:33N 32°22' W 090°53'1 1.2
2017-Feb-26 01:33N 32°23' W 090°54'3 3.3
2017-Feb-26 00:34N 32°20' W 090°54'0 0.0
2017-Feb-25 23:33N 32°20' W 090°54'0 0.0
2017-Feb-25 22:33N 32°20' W 090°54'2 2.1
2017-Feb-25 21:33N 32°22' W 090°53'2 1.6
2017-Feb-25 20:33N 32°23' W 090°53'0 0.0
2017-Feb-25 19:33N 32°23' W 090°53'0 0.0
2017-Feb-25 18:33N 32°23' W 090°53'0 0.0
2017-Feb-25 17:33N 32°23' W 090°53'0 0.0
2017-Feb-25 16:33N 32°23' W 090°53'0 0.2
2017-Feb-25 15:33N 32°23' W 090°53'1 0.8
2017-Feb-25 14:33N 32°22' W 090°53'2 2.1
2017-Feb-25 13:33N 32°20' W 090°54'1 0.7
2017-Feb-25 12:33N 32°20' W 090°54'4 3.6
2017-Feb-25 11:33N 32°23' W 090°53'0 0.0
2017-Feb-25 10:33N 32°23' W 090°53'0 0.0
2017-Feb-25 09:33N 32°23' W 090°53'0 0.0
2017-Feb-25 08:33N 32°23' W 090°53'0 0.0
2017-Feb-25 07:33N 32°23' W 090°53'1 0.5
2017-Feb-25 06:33N 32°23' W 090°54'1 0.7
2017-Feb-25 05:33N 32°23' W 090°53'3 2.9
2017-Feb-25 04:33N 32°20' W 090°54'2 1.7
2017-Feb-25 03:33N 32°19' W 090°54'0 0.4
2017-Feb-25 02:33N 32°19' W 090°54'1 0.6
2017-Feb-25 01:33N 32°20' W 090°54'0 0.2
2017-Feb-25 00:33N 32°19' W 090°54'0 0.2
2017-Feb-24 23:33N 32°20' W 090°54'1 1.0
2017-Feb-24 22:33N 32°19' W 090°55'1 1.1
2017-Feb-24 21:33N 32°20' W 090°54'4 3.5
2017-Feb-24 20:33N 32°23' W 090°54'2 1.7
2017-Feb-24 19:33N 32°22' W 090°53'5 5.0
2017-Feb-24 18:33N 32°21' W 090°59'3 3.4
2017-Feb-24 17:33N 32°21' W 090°55'2 2.0
2017-Feb-24 16:33N 32°22' W 090°53'1 0.8
2017-Feb-24 15:33N 32°22' W 090°52'1 1.0
2017-Feb-24 14:33N 32°23' W 090°53'0 0.0
2017-Feb-24 13:33N 32°23' W 090°53'4 3.7
2017-Feb-24 12:33N 32°20' W 090°54'0 0.0
2017-Feb-24 11:33N 32°20' W 090°54'0 0.2
2017-Feb-24 10:33N 32°20' W 090°54'2 1.9
2017-Feb-24 09:33N 32°22' W 090°53'2 1.7
2017-Feb-24 08:33N 32°23' W 090°53'0 0.0
2017-Feb-24 07:33N 32°23' W 090°53'0 0.0
2017-Feb-24 06:33N 32°23' W 090°53'0 0.0
2017-Feb-24 05:33N 32°23' W 090°53'0 0.3
2017-Feb-24 04:33N 32°23' W 090°53'0 0.4
2017-Feb-24 03:33N 32°23' W 090°53'0 0.1
2017-Feb-24 02:34N 32°23' W 090°53'1 1.2
2017-Feb-24 01:33N 32°22' W 090°53'2 2.2
2017-Feb-24 00:34N 32°20' W 090°54'0 0.5
2017-Feb-23 23:33N 32°21' W 090°53'0 0.1
2017-Feb-23 22:33N 32°21' W 090°53'1 1.4
2017-Feb-23 21:33N 32°22' W 090°53'1 1.0
2017-Feb-23 20:33N 32°21' W 090°53'5 4.5
2017-Feb-23 19:33N 32°21' W 090°59'3 3.2
2017-Feb-23 18:33N 32°21' W 090°55'2 2.3
2017-Feb-23 17:33N 32°22' W 090°53'1 1.2
2017-Feb-23 16:33N 32°23' W 090°54'0 0.4
2017-Feb-23 15:33N 32°23' W 090°53'0 0.5
2017-Feb-23 14:33N 32°23' W 090°54'1 0.8
2017-Feb-23 13:33N 32°23' W 090°53'4 3.6
2017-Feb-23 12:33N 32°20' W 090°54'4 3.7
2017-Feb-23 11:34N 32°23' W 090°53'1 0.8
2017-Feb-23 10:33N 32°23' W 090°54'1 0.6
2017-Feb-23 09:34N 32°23' W 090°53'0 0.0
2017-Feb-23 08:34N 32°23' W 090°53'0 0.0
2017-Feb-23 07:33N 32°23' W 090°53'0 0.4
2017-Feb-23 06:34N 32°23' W 090°54'1 1.0
2017-Feb-23 05:34N 32°23' W 090°53'4 4.3
2017-Feb-23 04:34N 32°19' W 090°54'1 1.0
2017-Feb-23 03:34N 32°18' W 090°55'1 0.6
2017-Feb-23 02:34N 32°19' W 090°55'2 2.4
2017-Feb-23 01:34N 32°21' W 090°53'1 1.2
2017-Feb-23 00:34N 32°20' W 090°54'3 3.3
2017-Feb-22 23:34N 32°23' W 090°53'1 1.2
2017-Feb-22 22:33N 32°22' W 090°53'1 0.9
2017-Feb-22 21:34N 32°22' W 090°52'1 0.5
2017-Feb-22 20:34N 32°23' W 090°53'5 5.4
2017-Feb-22 19:33N 32°21' W 090°59'3 2.9
2017-Feb-22 18:34N 32°21' W 090°55'1 1.2
2017-Feb-22 17:34N 32°20' W 090°54'0 0.2
2017-Feb-22 16:34N 32°20' W 090°54'3 2.8
2017-Feb-22 15:34N 32°23' W 090°54'1 0.9
2017-Feb-22 14:34N 32°23' W 090°53'1 1.4
2017-Feb-22 13:34N 32°22' W 090°53'2 2.2
2017-Feb-22 12:33N 32°20' W 090°54'0 0.1
2017-Feb-22 11:33N 32°20' W 090°54'0 0.2
2017-Feb-22 10:33N 32°20' W 090°54'1 1.5
2017-Feb-22 09:33N 32°18' W 090°55'0 0.0
2017-Feb-22 08:33N 32°18' W 090°55'0 0.1
2017-Feb-22 07:33N 32°18' W 090°55'0 0.4
2017-Feb-22 06:33N 32°18' W 090°55'5 4.8
2017-Feb-22 05:33N 32°23' W 090°53'1 0.5
2017-Feb-22 04:33N 32°23' W 090°53'4 3.6
2017-Feb-22 03:33N 32°20' W 090°54'3 2.8
2017-Feb-22 02:33N 32°22' W 090°53'1 1.3
2017-Feb-22 01:33N 32°23' W 090°54'4 3.6
2017-Feb-22 00:33N 32°20' W 090°54'2 2.1
2017-Feb-21 23:33N 32°22' W 090°53'3 3.0
2017-Feb-21 22:33N 32°19' W 090°54'1 0.8
2017-Feb-21 21:33N 32°18' W 090°55'0 0.1
2017-Feb-21 20:33N 32°18' W 090°55'0 0.4
2017-Feb-21 19:33N 32°18' W 090°55'0 0.1
2017-Feb-21 18:33N 32°18' W 090°55'0 0.2
2017-Feb-21 17:33N 32°18' W 090°55'0 0.0
2017-Feb-21 16:33N 32°18' W 090°55'3 2.6
2017-Feb-21 15:33N 32°20' W 090°54'3 2.8
2017-Feb-21 14:33N 32°23' W 090°53'0 0.2
2017-Feb-21 13:33N 32°23' W 090°53'3 2.9
2017-Feb-21 12:33N 32°20' W 090°54'1 0.8
2017-Feb-21 11:33N 32°20' W 090°54'1 1.1
2017-Feb-21 10:33N 32°21' W 090°53'0 0.0
2017-Feb-21 09:33N 32°21' W 090°53'0 0.0
2017-Feb-21 08:33N 32°21' W 090°53'2 2.3
2017-Feb-21 07:33N 32°23' W 090°53'0 0.4
2017-Feb-21 06:33N 32°23' W 090°53'0 0.0
2017-Feb-21 05:33N 32°23' W 090°53'1 0.7
2017-Feb-21 04:33N 32°22' W 090°53'1 0.8
2017-Feb-21 03:33N 32°22' W 090°53'3 2.8
2017-Feb-21 02:33N 32°24' W 090°55'1 0.5
2017-Feb-21 01:33N 32°23' W 090°55'4 3.8
2017-Feb-21 00:33N 32°20' W 090°54'3 2.9
2017-Feb-20 23:33N 32°22' W 090°53'1 0.8
2017-Feb-20 22:33N 32°23' W 090°53'0 0.1
2017-Feb-20 21:33N 32°23' W 090°53'0 0.4
2017-Feb-20 20:33N 32°23' W 090°54'0 0.1
2017-Feb-20 19:33N 32°23' W 090°54'1 1.3
2017-Feb-20 18:34N 32°23' W 090°53'2 2.1
2017-Feb-20 17:34N 32°23' W 090°55'3 2.9
2017-Feb-20 16:33N 32°21' W 090°53'3 2.9
2017-Feb-20 15:33N 32°21' W 090°57'1 0.5
2017-Feb-20 14:33N 32°21' W 090°57'0 0.1
2017-Feb-20 13:33N 32°21' W 090°57'2 2.3
2017-Feb-20 12:33N 32°21' W 090°55'1 1.3
2017-Feb-20 11:33N 32°20' W 090°54'4 3.6
2017-Feb-20 10:33N 32°23' W 090°53'0 0.0
2017-Feb-20 09:33N 32°23' W 090°53'0 0.0
2017-Feb-20 08:33N 32°23' W 090°53'0 0.0
2017-Feb-20 07:33N 32°23' W 090°53'5 4.7
2017-Feb-20 06:33N 32°19' W 090°55'4 4.1
2017-Feb-20 05:33N 32°22' W 090°53'1 1.2
2017-Feb-20 04:33N 32°23' W 090°53'0 0.0
2017-Feb-20 03:33N 32°23' W 090°53'0 0.0
2017-Feb-20 02:33N 32°23' W 090°53'0 0.5
2017-Feb-20 01:33N 32°23' W 090°53'3 3.5
2017-Feb-20 00:33N 32°20' W 090°54'0 0.0
2017-Feb-19 23:34N 32°20' W 090°54'1 0.8
2017-Feb-19 22:33N 32°20' W 090°54'3 2.7
2017-Feb-19 21:34N 32°23' W 090°53'0 0.4
2017-Feb-19 20:33N 32°23' W 090°53'0 0.0
2017-Feb-19 19:34N 32°23' W 090°53'0 0.0
2017-Feb-19 18:33N 32°23' W 090°53'0 0.4
2017-Feb-19 17:33N 32°23' W 090°54'1 0.9
2017-Feb-19 16:33N 32°22' W 090°53'1 1.4
2017-Feb-19 15:33N 32°23' W 090°55'1 1.4
2017-Feb-19 14:33N 32°22' W 090°53'3 2.9
2017-Feb-19 13:33N 32°20' W 090°54'0 0.0
2017-Feb-19 12:33N 32°20' W 090°54'0 0.4
2017-Feb-19 11:33N 32°20' W 090°54'3 3.1
2017-Feb-19 10:33N 32°23' W 090°53'1 1.2
2017-Feb-19 09:33N 32°22' W 090°53'4 4.4
2017-Feb-19 08:33N 32°18' W 090°55'0 0.3
2017-Feb-19 07:33N 32°18' W 090°55'0 0.1
2017-Feb-19 06:33N 32°18' W 090°55'3 2.6
2017-Feb-19 05:33N 32°20' W 090°54'3 2.6
2017-Feb-19 04:33N 32°23' W 090°53'5 5.0
2017-Feb-19 03:33N 32°18' W 090°55'5 5.2
2017-Feb-19 02:33N 32°23' W 090°53'1 1.1
2017-Feb-19 01:33N 32°22' W 090°53'2 2.2
2017-Feb-19 00:33N 32°20' W 090°54'2 1.8
2017-Feb-18 23:34N 32°19' W 090°55'1 0.6
2017-Feb-18 22:34N 32°18' W 090°55'3 3.0
2017-Feb-18 21:33N 32°21' W 090°53'2 1.7
2017-Feb-18 20:34N 32°22' W 090°53'1 1.2
2017-Feb-18 19:34N 32°23' W 090°53'0 0.1
2017-Feb-18 18:34N 32°23' W 090°53'0 0.1
2017-Feb-18 17:33N 32°23' W 090°53'0 0.0
2017-Feb-18 16:34N 32°23' W 090°53'0 0.0
2017-Feb-18 15:34N 32°23' W 090°53'0 0.0
2017-Feb-18 14:33N 32°23' W 090°53'2 2.0
2017-Feb-18 13:34N 32°21' W 090°53'2 1.8
2017-Feb-18 12:34N 32°20' W 090°54'2 1.7
2017-Feb-18 11:33N 32°21' W 090°53'1 0.6
2017-Feb-18 10:33N 32°22' W 090°53'0 0.0
2017-Feb-18 09:33N 32°22' W 090°53'2 1.5
2017-Feb-18 08:33N 32°23' W 090°53'4 3.7
2017-Feb-18 07:33N 32°20' W 090°54'2 2.0
2017-Feb-18 06:33N 32°18' W 090°56'0 0.1
2017-Feb-18 05:33N 32°18' W 090°56'1 0.6
2017-Feb-18 04:33N 32°18' W 090°55'0 0.0
2017-Feb-18 03:33N 32°18' W 090°55'2 2.1
2017-Feb-18 02:33N 32°20' W 090°54'3 3.0
2017-Feb-18 01:33N 32°23' W 090°52'2 2.0
2017-Feb-18 00:33N 32°21' W 090°53'1 1.2
2017-Feb-17 23:33N 32°20' W 090°54'3 3.4
2017-Feb-17 22:33N 32°23' W 090°53'1 1.0
2017-Feb-17 21:33N 32°22' W 090°53'1 1.1
2017-Feb-17 20:33N 32°21' W 090°53'1 1.3
2017-Feb-17 19:33N 32°22' W 090°53'0 0.2
2017-Feb-17 18:33N 32°22' W 090°53'3 2.8
2017-Feb-17 17:33N 32°20' W 090°54'0 0.0
2017-Feb-17 16:33N 32°20' W 090°54'0 0.0
2017-Feb-17 15:33N 32°20' W 090°54'0 0.0
2017-Feb-17 14:33N 32°20' W 090°54'0 0.0
2017-Feb-17 13:33N 32°20' W 090°54'0 0.0
2017-Feb-17 12:33N 32°20' W 090°54'3 3.2
2017-Feb-17 11:33N 32°23' W 090°52'1 1.0
2017-Feb-17 10:33N 32°23' W 090°53'0 0.0
2017-Feb-17 09:33N 32°23' W 090°53'0 0.0
2017-Feb-17 08:33N 32°23' W 090°53'0 0.0
2017-Feb-17 07:33N 32°23' W 090°53'0 0.0
2017-Feb-17 06:33N 32°23' W 090°53'0 0.0
2017-Feb-17 05:33N 32°23' W 090°53'0 0.5
2017-Feb-17 04:33N 32°23' W 090°54'1 0.9
2017-Feb-17 03:33N 32°23' W 090°53'3 3.1
2017-Feb-17 02:33N 32°20' W 090°54'2 2.0
2017-Feb-17 01:33N 32°18' W 090°55'2 2.4
2017-Feb-17 00:33N 32°20' W 090°54'2 1.9
2017-Feb-16 23:33N 32°19' W 090°55'1 1.0
2017-Feb-16 22:33N 32°18' W 090°56'0 0.1
2017-Feb-16 21:33N 32°18' W 090°55'5 5.4
2017-Feb-16 20:33N 32°23' W 090°53'1 1.4
2017-Feb-16 19:33N 32°22' W 090°53'4 3.6
2017-Feb-16 18:33N 32°18' W 090°55'0 0.2
2017-Feb-16 17:33N 32°18' W 090°55'3 2.9
2017-Feb-16 16:33N 32°21' W 090°53'2 2.3
2017-Feb-16 15:33N 32°23' W 090°53'0 0.2
2017-Feb-16 14:33N 32°23' W 090°53'2 1.7
2017-Feb-16 13:33N 32°22' W 090°53'2 2.0
2017-Feb-16 12:33N 32°20' W 090°54'1 0.7
2017-Feb-16 11:33N 32°21' W 090°54'  

Dump ship's entire track history